createdAt,value
2018-02-06T00:00:36.979Z,99.99
2018-02-06T00:01:37.083Z,99.99
2018-02-06T00:02:37.003Z,99.99
2018-02-06T00:03:37.006Z,99.99
2018-02-06T00:04:37.008Z,99.99
2018-02-06T00:05:37.026Z,99.99
2018-02-06T00:06:37.134Z,99.99
2018-02-06T00:07:37.049Z,99.99
2018-02-06T00:08:36.806Z,99.99
2018-02-06T00:09:51.740Z,99.99
2018-02-06T00:10:37.075Z,99.99
2018-02-06T00:12:37.107Z,99.99
2018-02-06T00:13:37.109Z,99.99
2018-02-06T00:14:37.138Z,99.99
2018-02-06T00:15:37.127Z,99.99
2018-02-06T00:16:37.153Z,99.99
2018-02-06T00:17:37.161Z,99.99
2018-02-06T00:18:37.160Z,99.99
2018-02-06T00:19:37.178Z,99.99
2018-02-06T00:20:37.185Z,99.99
2018-02-06T00:21:37.210Z,99.99
2018-02-06T00:22:36.959Z,99.99
2018-02-06T00:24:51.899Z,99.99
2018-02-06T00:25:37.238Z,99.99
2018-02-06T00:26:37.256Z,99.99
2018-02-06T00:27:37.249Z,99.99
2018-02-06T00:28:37.021Z,99.99
2018-02-06T00:29:37.303Z,99.99
2018-02-06T00:30:37.295Z,99.99
2018-02-06T00:31:37.303Z,99.99
2018-02-06T00:32:37.305Z,99.99
2018-02-06T00:33:37.324Z,99.99
2018-02-06T00:34:37.320Z,99.99
2018-02-06T00:35:37.099Z,99.99
2018-02-06T00:36:37.345Z,99.99
2018-02-06T00:40:37.407Z,99.99
2018-02-06T00:42:37.421Z,99.99
2018-02-06T00:43:37.175Z,99.99
2018-02-06T00:44:37.437Z,99.99
2018-02-06T00:45:37.445Z,99.99
2018-02-06T00:46:37.461Z,99.99
2018-02-06T00:47:37.478Z,99.99
2018-02-06T00:48:37.479Z,99.99
2018-02-06T00:49:37.497Z,99.99
2018-02-06T00:50:37.504Z,99.99
2018-02-06T00:51:37.496Z,99.99
2018-02-06T00:52:37.551Z,99.99
2018-02-06T00:53:37.536Z,99.99
2018-02-06T00:54:37.537Z,99.99
2018-02-06T00:55:37.556Z,99.99
2018-02-06T00:56:52.225Z,99.99
2018-02-06T00:57:37.572Z,99.99
2018-02-06T00:58:37.570Z,99.99
2018-02-06T00:59:37.603Z,99.99
2018-02-06T01:00:37.594Z,99.99
2018-02-06T01:01:37.608Z,99.99
2018-02-06T01:02:37.617Z,99.99
2018-02-06T01:03:37.374Z,99.99
2018-02-06T01:04:37.647Z,99.99
2018-02-06T01:05:37.654Z,99.99
2018-02-06T01:06:37.722Z,99.99
2018-02-06T01:07:37.412Z,99.99
2018-02-06T01:08:37.682Z,99.99
2018-02-06T01:10:37.445Z,99.99
2018-02-06T01:11:37.456Z,99.99
2018-02-06T01:12:52.391Z,99.99
2018-02-06T01:13:37.730Z,99.99
2018-02-06T01:14:37.739Z,99.99
2018-02-06T01:15:37.755Z,99.99
2018-02-06T01:16:37.777Z,99.99
2018-02-06T01:17:37.780Z,99.99
2018-02-06T01:18:37.795Z,99.99
2018-02-06T01:19:37.538Z,99.99
2018-02-06T01:20:37.811Z,99.99
2018-02-06T01:21:37.828Z,99.99
2018-02-06T01:22:37.816Z,99.99
2018-02-06T01:23:37.833Z,99.99
2018-02-06T01:24:37.593Z,99.99
2018-02-06T01:25:37.852Z,99.99
2018-02-06T01:26:37.867Z,99.99
2018-02-06T01:27:37.876Z,99.99
2018-02-06T01:28:52.551Z,99.99
2018-02-06T01:29:37.900Z,99.99
2018-02-06T01:30:37.899Z,99.99
2018-02-06T01:31:37.670Z,99.99
2018-02-06T01:32:37.974Z,99.99
2018-02-06T01:33:37.965Z,99.99
2018-02-06T01:34:37.953Z,99.99
2018-02-06T01:35:37.965Z,99.99
2018-02-06T01:36:37.966Z,99.99
2018-02-06T01:37:37.738Z,99.99
2018-02-06T01:38:37.738Z,99.99
2018-02-06T01:39:37.748Z,99.99
2018-02-06T01:41:38.023Z,99.99
2018-02-06T01:42:37.784Z,99.99
2018-02-06T01:43:38.040Z,99.99
2018-02-06T01:44:52.718Z,99.99
2018-02-06T01:45:38.070Z,99.99
2018-02-06T01:46:38.070Z,99.99
2018-02-06T01:47:38.073Z,99.99
2018-02-06T01:48:38.083Z,99.99
2018-02-06T01:49:38.105Z,99.99
2018-02-06T01:50:38.105Z,99.99
2018-02-06T01:51:38.117Z,99.99
2018-02-06T01:52:38.138Z,99.99
2018-02-06T01:53:38.142Z,99.99
2018-02-06T01:54:38.153Z,99.99
2018-02-06T01:55:38.161Z,99.99
2018-02-06T01:56:37.916Z,99.99
2018-02-06T01:57:38.189Z,99.99
2018-02-06T01:58:38.201Z,99.99
2018-02-06T01:59:52.869Z,99.99
2018-02-06T02:00:38.210Z,99.99
2018-02-06T02:01:38.221Z,99.99
2018-02-06T02:02:38.231Z,99.99
2018-02-06T02:03:38.252Z,99.99
2018-02-06T02:04:38.254Z,99.99
2018-02-06T02:05:38.252Z,99.99
2018-02-06T02:06:38.272Z,99.99
2018-02-06T02:07:38.271Z,99.99
2018-02-06T02:08:38.292Z,99.99
2018-02-06T02:09:38.060Z,99.99
2018-02-06T02:10:38.060Z,99.99
2018-02-06T02:11:38.327Z,99.99
2018-02-06T02:12:38.342Z,99.99
2018-02-06T02:13:38.085Z,99.99
2018-02-06T02:14:38.352Z,99.99
2018-02-06T02:15:38.368Z,99.99
2018-02-06T02:16:38.374Z,99.99
2018-02-06T02:17:38.374Z,99.99
2018-02-06T02:18:38.394Z,99.99
2018-02-06T02:19:38.406Z,99.99
2018-02-06T02:20:38.416Z,99.99
2018-02-06T02:21:38.178Z,99.99
2018-02-06T02:22:38.442Z,99.99
2018-02-06T02:23:38.195Z,99.99
2018-02-06T02:24:38.449Z,99.99
2018-02-06T02:25:38.476Z,99.99
2018-02-06T02:26:38.470Z,99.99
2018-02-06T02:27:38.476Z,99.99
2018-02-06T02:28:38.507Z,99.99
2018-02-06T02:29:38.498Z,99.99
2018-02-06T02:30:38.265Z,99.99
2018-02-06T02:31:53.191Z,99.99
2018-02-06T02:32:38.535Z,99.99
2018-02-06T02:33:38.544Z,99.99
2018-02-06T02:34:38.561Z,99.99
2018-02-06T02:35:38.568Z,99.99
2018-02-06T02:36:38.575Z,99.99
2018-02-06T02:37:38.344Z,99.99
2018-02-06T02:38:38.594Z,99.99
2018-02-06T02:39:38.608Z,99.99
2018-02-06T02:40:38.616Z,99.99
2018-02-06T02:41:38.619Z,99.99
2018-02-06T04:38:54.504Z,99.99
2018-02-06T04:39:39.796Z,99.99
2018-02-06T04:40:39.819Z,99.99
2018-02-06T04:41:39.802Z,99.99
2018-02-06T04:43:39.843Z,99.99
2018-02-06T04:44:39.844Z,99.99
2018-02-06T04:45:39.848Z,99.99
2018-02-06T04:46:39.867Z,99.99
2018-02-06T04:47:39.874Z,99.99
2018-02-06T04:48:39.879Z,99.99
2018-02-06T04:49:39.888Z,99.99
2018-02-06T04:50:39.921Z,99.99
2018-02-06T04:51:39.662Z,99.99
2018-02-06T04:52:39.918Z,99.99
2018-02-06T04:53:39.685Z,99.99
2018-02-06T04:54:54.614Z,99.99
2018-02-06T04:55:39.956Z,99.99
2018-02-06T04:56:39.709Z,99.99
2018-02-06T04:57:39.715Z,99.99
2018-02-06T04:58:39.735Z,99.99
2018-02-06T04:59:39.987Z,99.99
2018-02-06T05:00:40.008Z,99.99
2018-02-06T05:01:39.760Z,99.99
2018-02-06T05:02:40.085Z,99.99
2018-02-06T05:04:39.789Z,99.99
2018-02-06T05:05:40.053Z,99.99
2018-02-06T05:06:40.061Z,99.99
2018-02-06T05:07:40.067Z,99.99
2018-02-06T05:08:40.095Z,99.99
2018-02-06T05:09:54.758Z,99.99
2018-02-06T05:10:40.091Z,99.99
2018-02-06T05:11:39.857Z,99.99
2018-02-06T05:12:39.869Z,99.99
2018-02-06T05:14:40.136Z,99.99
2018-02-06T05:15:40.150Z,99.99
2018-02-06T05:16:40.164Z,99.99
2018-02-06T05:17:40.158Z,99.99
2018-02-06T05:18:40.189Z,99.99
2018-02-06T05:19:40.200Z,99.99
2018-02-06T05:20:39.944Z,99.99
2018-02-06T05:21:40.225Z,99.99
2018-02-06T05:22:39.964Z,99.99
2018-02-06T05:23:40.222Z,99.99
2018-02-06T05:24:40.237Z,99.99
2018-02-06T05:25:40.244Z,99.99
2018-02-06T05:26:40.259Z,99.99
2018-02-06T05:27:40.310Z,99.99
2018-02-06T05:28:40.025Z,99.99
2018-02-06T05:29:40.286Z,99.99
2018-02-06T05:30:40.043Z,99.99
2018-02-06T05:31:40.304Z,99.99
2018-02-06T05:32:40.303Z,99.99
2018-02-06T05:33:40.330Z,99.99
2018-02-06T05:34:40.332Z,99.99
2018-02-06T05:35:40.340Z,99.99
2018-02-06T05:36:40.345Z,99.99
2018-02-06T05:37:40.366Z,99.99
2018-02-06T05:38:40.374Z,99.99
2018-02-06T05:39:40.401Z,99.99
2018-02-06T05:40:40.387Z,99.99
2018-02-06T05:41:55.065Z,99.99
2018-02-06T05:42:40.158Z,99.99
2018-02-06T05:43:40.409Z,99.99
2018-02-06T05:44:40.180Z,99.99
2018-02-06T05:45:40.488Z,99.99
2018-02-06T05:46:40.434Z,99.99
2018-02-06T05:47:40.472Z,99.99
2018-02-06T05:48:40.525Z,99.99
2018-02-06T05:49:40.486Z,99.99
2018-02-06T05:51:40.490Z,99.99
2018-02-06T05:52:40.516Z,99.99
2018-02-06T05:53:40.505Z,99.99
2018-02-06T05:54:40.271Z,99.99
2018-02-06T05:55:40.538Z,99.99
2018-02-06T05:56:40.547Z,99.99
2018-02-06T05:57:55.224Z,99.99
2018-02-06T05:58:40.330Z,99.99
2018-02-06T05:59:40.580Z,99.99
2018-02-06T06:00:40.333Z,99.99
2018-02-06T06:01:40.590Z,99.99
2018-02-06T06:02:40.610Z,99.99
2018-02-06T06:03:40.663Z,99.99
2018-02-06T06:04:40.621Z,99.99
2018-02-06T06:05:40.633Z,99.99
2018-02-06T06:06:40.640Z,99.99
2018-02-06T06:07:40.657Z,99.99
2018-02-06T06:08:40.651Z,99.99
2018-02-06T06:09:40.411Z,99.99
2018-02-06T06:10:40.672Z,99.99
2018-02-06T06:11:40.688Z,99.99
2018-02-06T06:12:40.701Z,99.99
2018-02-06T06:13:55.379Z,99.99
2018-02-06T06:14:40.462Z,99.99
2018-02-06T06:15:40.738Z,99.99
2018-02-06T06:16:40.727Z,99.99
2018-02-06T06:17:40.750Z,99.99
2018-02-06T06:18:40.756Z,99.99
2018-02-06T06:19:40.757Z,99.99
2018-02-06T06:20:40.773Z,99.99
2018-02-06T06:21:40.779Z,99.99
2018-02-06T06:22:40.800Z,99.99
2018-02-06T06:23:40.810Z,99.99
2018-02-06T06:24:40.807Z,99.99
2018-02-06T06:25:40.838Z,99.99
2018-02-06T06:26:40.836Z,99.99
2018-02-06T06:27:40.839Z,99.99
2018-02-06T06:28:40.848Z,99.99
2018-02-06T06:29:55.527Z,99.99
2018-02-06T06:30:40.876Z,99.99
2018-02-06T06:31:40.888Z,99.99
2018-02-06T06:32:40.878Z,99.99
2018-02-06T06:33:40.901Z,99.99
2018-02-06T06:34:40.903Z,99.99
2018-02-06T06:35:40.926Z,99.99
2018-02-06T06:36:40.927Z,99.99
2018-02-06T06:37:40.938Z,99.99
2018-02-06T06:38:40.736Z,99.99
2018-02-06T06:39:40.949Z,99.99
2018-02-06T06:40:40.722Z,99.99
2018-02-06T06:42:40.992Z,99.99
2018-02-06T06:43:40.996Z,99.99
2018-02-06T06:44:55.674Z,99.99
2018-02-06T06:46:41.021Z,99.99
2018-02-06T06:47:41.026Z,99.99
2018-02-06T06:48:40.794Z,99.99
2018-02-06T06:49:41.045Z,99.99
2018-02-06T06:50:40.822Z,99.99
2018-02-06T06:51:41.074Z,99.99
2018-02-06T06:52:41.101Z,99.99
2018-02-06T06:53:41.100Z,99.99
2018-02-06T06:56:41.130Z,99.99
2018-02-06T06:57:41.135Z,99.99
2018-02-06T06:58:41.147Z,99.99
2018-02-06T06:59:41.152Z,99.99
2018-02-06T07:00:41.163Z,99.99
2018-02-06T07:01:40.909Z,99.99
2018-02-06T07:02:41.196Z,99.99
2018-02-06T07:03:40.927Z,99.99
2018-02-06T07:04:41.201Z,99.99
2018-02-06T07:05:41.209Z,99.99
2018-02-06T07:06:41.217Z,99.99
2018-02-06T07:08:41.246Z,99.99
2018-02-06T07:09:40.996Z,99.99
2018-02-06T07:10:41.273Z,99.99
2018-02-06T07:11:41.262Z,99.99
2018-02-06T07:12:41.278Z,99.99
2018-02-06T07:13:41.288Z,99.99
2018-02-06T07:14:41.291Z,99.99
2018-02-06T07:15:41.303Z,99.99
2018-02-06T07:16:55.986Z,99.99
2018-02-06T07:17:41.321Z,99.99
2018-02-06T07:18:41.351Z,99.99
2018-02-06T07:19:41.343Z,99.99
2018-02-06T07:20:41.098Z,99.99
2018-02-06T07:21:41.113Z,99.99
2018-02-06T07:22:41.377Z,99.99
2018-02-06T07:23:41.394Z,99.99
2018-02-06T07:24:41.396Z,99.99
2018-02-06T07:25:41.160Z,99.99
2018-02-06T07:26:41.410Z,99.99
2018-02-06T07:27:41.416Z,99.99
2018-02-06T07:28:41.441Z,99.99
2018-02-06T07:30:41.448Z,99.99
2018-02-06T07:31:41.460Z,99.99
2018-02-06T07:32:56.145Z,99.99
2018-02-06T07:33:41.490Z,99.99
2018-02-06T07:34:41.486Z,99.99
2018-02-06T07:35:41.246Z,99.99
2018-02-06T07:36:41.262Z,99.99
2018-02-06T07:37:41.529Z,99.99
2018-02-06T07:38:41.541Z,99.99
2018-02-06T07:39:41.302Z,99.99
2018-02-06T07:40:41.305Z,99.99
2018-02-06T07:42:41.317Z,99.99
2018-02-06T07:43:41.331Z,99.99
2018-02-06T07:44:41.605Z,99.99
2018-02-06T07:45:41.678Z,99.99
2018-02-06T07:46:41.627Z,99.99
2018-02-06T07:47:41.643Z,99.99
2018-02-06T07:48:56.314Z,99.99
2018-02-06T07:49:41.404Z,99.99
2018-02-06T07:50:41.671Z,99.99
2018-02-06T07:51:41.670Z,99.99
2018-02-06T07:52:41.695Z,99.99
2018-02-06T07:53:41.689Z,99.99
2018-02-06T07:55:41.735Z,99.99
2018-02-06T07:56:41.480Z,99.99
2018-02-06T07:57:41.494Z,99.99
2018-02-06T07:58:41.747Z,99.99
2018-02-06T07:59:41.766Z,99.99
2018-02-06T08:00:41.531Z,99.99
2018-02-06T08:01:41.807Z,99.99
2018-02-06T08:02:41.818Z,99.99
2018-02-06T08:04:56.497Z,99.99
2018-02-06T08:05:41.864Z,99.99
2018-02-06T08:06:41.849Z,99.99
2018-02-06T08:07:41.882Z,99.99
2018-02-06T08:08:41.872Z,99.99
2018-02-06T08:09:41.878Z,99.99
2018-02-06T08:10:41.905Z,99.99
2018-02-06T08:11:41.660Z,99.99
2018-02-06T08:12:42.030Z,99.99
2018-02-06T08:13:41.957Z,99.99
2018-02-06T08:14:41.959Z,99.99
2018-02-06T08:15:41.701Z,99.99
2018-02-06T08:16:41.979Z,99.99
2018-02-06T08:17:42.085Z,99.99
2018-02-06T08:18:42.005Z,99.99
2018-02-06T08:19:56.681Z,99.99
2018-02-06T08:20:42.034Z,99.99
2018-02-06T08:21:42.035Z,99.99
2018-02-06T08:22:42.052Z,99.99
2018-02-06T08:24:42.094Z,99.99
2018-02-06T08:25:42.086Z,99.99
2018-02-06T08:26:42.106Z,99.99
2018-02-06T08:27:42.113Z,99.99
2018-02-06T08:28:42.132Z,99.99
2018-02-06T08:29:42.148Z,99.99
2018-02-06T08:30:42.170Z,99.99
2018-02-06T08:31:42.168Z,99.99
2018-02-06T08:32:42.189Z,99.99
2018-02-06T08:33:42.199Z,99.99
2018-02-06T08:34:42.193Z,99.99
2018-02-06T08:35:42.214Z,99.99
2018-02-06T08:36:42.267Z,99.99
2018-02-06T08:37:42.239Z,99.99
2018-02-06T08:38:42.242Z,99.99
2018-02-06T08:39:42.033Z,99.99
2018-02-06T08:40:42.283Z,99.99
2018-02-06T08:42:42.301Z,99.99
2018-02-06T08:43:42.315Z,99.99
2018-02-06T08:44:42.333Z,99.99
2018-02-06T08:45:42.347Z,99.99
2018-02-06T08:46:42.360Z,99.99
2018-02-06T08:47:42.368Z,99.99
2018-02-06T08:48:42.394Z,99.99
2018-02-06T08:49:42.388Z,99.99
2018-02-06T08:50:42.405Z,99.99
2018-02-06T08:51:57.086Z,99.99
2018-02-06T08:52:42.414Z,99.99
2018-02-06T08:53:42.450Z,99.99
2018-02-06T08:54:42.459Z,99.99
2018-02-06T08:55:42.478Z,99.99
2018-02-06T08:56:42.498Z,99.99
2018-02-06T08:57:42.503Z,99.99
2018-02-06T08:58:42.517Z,99.99
2018-02-06T08:59:42.523Z,99.99
2018-02-06T09:00:42.528Z,99.99
2018-02-06T09:01:42.284Z,99.99
2018-02-06T09:02:42.571Z,99.99
2018-02-06T09:03:42.561Z,99.99
2018-02-06T09:04:42.598Z,99.99
2018-02-06T09:05:42.654Z,99.99
2018-02-06T09:06:42.603Z,99.99
2018-02-06T09:07:57.298Z,99.99
2018-02-06T09:08:42.640Z,99.99
2018-02-06T09:09:42.655Z,99.99
2018-02-06T09:10:42.400Z,99.99
2018-02-06T09:11:42.668Z,99.99
2018-02-06T09:12:42.696Z,99.99
2018-02-06T09:13:42.714Z,99.99
2018-02-06T09:14:42.721Z,99.99
2018-02-06T09:15:42.724Z,99.99
2018-02-06T09:17:42.756Z,99.99
2018-02-06T09:18:42.769Z,99.99
2018-02-06T09:20:42.795Z,99.99
2018-02-06T09:21:42.797Z,99.99
2018-02-06T09:22:42.821Z,99.99
2018-02-06T09:23:57.495Z,99.99
2018-02-06T09:24:42.852Z,99.99
2018-02-06T09:25:42.862Z,99.99
2018-02-06T09:26:42.879Z,99.99
2018-02-06T09:27:42.882Z,99.99
2018-02-06T09:28:42.942Z,99.99
2018-02-06T09:29:42.919Z,99.99
2018-02-06T09:30:42.930Z,99.99
2018-02-06T09:31:42.940Z,99.99
2018-02-06T09:32:42.696Z,99.99
2018-02-06T09:33:42.964Z,99.99
2018-02-06T09:34:42.986Z,99.99
2018-02-06T09:35:42.999Z,99.14
2018-02-06T09:36:43.014Z,99.99
2018-02-06T09:37:43.017Z,99.99
2018-02-06T09:38:43.028Z,99.99
2018-02-06T09:39:57.709Z,99.99
2018-02-06T09:40:43.056Z,99.99
2018-02-06T09:41:43.066Z,99.99
2018-02-06T09:42:43.102Z,99.99
2018-02-06T09:43:43.094Z,99.99
2018-02-06T09:44:42.850Z,99.99
2018-02-06T09:45:43.122Z,99.99
2018-02-06T09:46:43.136Z,99.99
2018-02-06T09:47:43.141Z,99.99
2018-02-06T09:48:43.174Z,99.99
2018-02-06T09:49:43.179Z,99.99
2018-02-06T09:50:43.200Z,99.99
2018-02-06T09:51:43.202Z,99.99
2018-02-06T09:52:43.207Z,99.99
2018-02-06T09:53:43.240Z,99.99
2018-02-06T09:54:57.910Z,99.99
2018-02-06T09:55:43.271Z,99.99
2018-02-06T09:56:43.275Z,99.99
2018-02-06T09:57:43.272Z,99.8
2018-02-06T09:58:43.301Z,99.71
2018-02-06T09:59:43.301Z,99.52
2018-02-06T10:00:43.071Z,99.52
2018-02-06T10:01:43.333Z,99.33
2018-02-06T10:02:43.344Z,98.85
2018-02-06T10:04:43.371Z,98
2018-02-06T10:05:43.382Z,98.38
2018-02-06T10:06:43.414Z,97.53
2018-02-06T10:08:43.420Z,97.53
2018-02-06T10:09:43.443Z,97.25
2018-02-06T10:10:43.456Z,96.87
2018-02-06T10:11:43.463Z,96.4
2018-02-06T10:12:43.536Z,95.45
2018-02-06T10:13:43.249Z,95.54
2018-02-06T10:14:43.513Z,96.4
2018-02-06T10:15:43.518Z,95.92
2018-02-06T10:17:43.545Z,95.59
2018-02-06T10:18:43.596Z,96.35
2018-02-06T10:20:43.595Z,95.88
2018-02-06T10:21:43.346Z,95.78
2018-02-06T10:22:43.614Z,96.16
2018-02-06T10:23:43.613Z,95.5
2018-02-06T10:24:43.638Z,95.21
2018-02-06T10:25:43.399Z,94.27
2018-02-06T10:26:58.341Z,94.08
2018-02-06T10:27:43.687Z,94.27
2018-02-06T10:28:43.681Z,94.08
2018-02-06T10:29:43.708Z,92.99
2018-02-06T10:30:43.719Z,93.7
2018-02-06T10:31:43.730Z,94.18
2018-02-06T10:32:43.740Z,93.89
2018-02-06T10:33:43.769Z,93.04
2018-02-06T10:34:43.775Z,94.46
2018-02-06T10:35:43.793Z,93.99
2018-02-06T10:36:43.553Z,92.94
2018-02-06T10:37:43.807Z,92.76
2018-02-06T10:38:43.837Z,92
2018-02-06T10:39:43.583Z,93.13
2018-02-06T10:40:43.605Z,92.94
2018-02-06T10:41:43.865Z,93.42
2018-02-06T10:42:58.555Z,94.46
2018-02-06T10:43:43.637Z,94.74
2018-02-06T10:44:43.906Z,94.08
2018-02-06T10:45:43.919Z,93.51
2018-02-06T10:46:43.938Z,92.29
2018-02-06T10:47:43.953Z,91.43
2018-02-06T10:49:43.981Z,91.34
2018-02-06T10:50:43.991Z,91.53
2018-02-06T10:51:44.010Z,91.15
2018-02-06T10:52:44.012Z,91.62
2018-02-06T10:53:44.034Z,90.68
2018-02-06T10:54:44.028Z,89.92
2018-02-06T10:55:44.067Z,89.92
2018-02-06T10:56:44.058Z,89.36
2018-02-06T10:57:44.084Z,88.98
2018-02-06T10:58:58.809Z,88.69
2018-02-06T11:00:44.124Z,87.55
2018-02-06T11:01:44.128Z,86.99
2018-02-06T11:02:44.146Z,86.9
2018-02-06T11:04:44.164Z,85.85
2018-02-06T11:05:44.187Z,85.66
2018-02-06T11:06:43.952Z,85.85
2018-02-06T11:07:44.204Z,84.25
2018-02-06T11:08:44.228Z,85.1
2018-02-06T11:10:44.246Z,84.72
2018-02-06T11:11:44.263Z,83.11
2018-02-06T11:12:44.269Z,83.21
2018-02-06T11:13:44.279Z,83.4
2018-02-06T11:14:58.975Z,83.11
2018-02-06T11:15:44.316Z,82.54
2018-02-06T11:16:44.320Z,82.35
2018-02-06T11:17:44.353Z,82.54
2018-02-06T11:18:44.096Z,83.02
2018-02-06T11:19:44.370Z,81.98
2018-02-06T11:20:44.385Z,81.7
2018-02-06T11:21:44.398Z,81.7
2018-02-06T11:22:44.403Z,82.64
2018-02-06T11:23:44.422Z,81.88
2018-02-06T11:25:44.447Z,81.93
2018-02-06T11:26:44.458Z,81.74
2018-02-06T11:27:44.222Z,80.98
2018-02-06T11:28:44.481Z,81.17
2018-02-06T11:29:59.177Z,81.17
2018-02-06T11:30:44.521Z,81.36
2018-02-06T11:31:44.530Z,80.88
2018-02-06T11:32:44.542Z,80.41
2018-02-06T11:33:44.546Z,80.51
2018-02-06T11:34:44.313Z,80.56
2018-02-06T11:35:44.643Z,80.88
2018-02-06T11:36:44.606Z,80.32
2018-02-06T11:37:44.349Z,80.6
2018-02-06T11:38:44.628Z,80.98
2018-02-06T11:39:44.384Z,80.41
2018-02-06T11:41:44.655Z,80.51
2018-02-06T11:42:44.674Z,79.85
2018-02-06T11:43:44.685Z,79.52
2018-02-06T11:44:44.710Z,79.9
2018-02-06T11:45:44.709Z,80.37
2018-02-06T11:46:44.734Z,80.08
2018-02-06T11:47:44.493Z,80.65
2018-02-06T11:48:44.502Z,80.18
2018-02-06T11:49:44.769Z,80.94
2018-02-06T11:50:44.778Z,81.22
2018-02-06T11:51:44.547Z,81.51
2018-02-06T11:52:44.551Z,81.32
2018-02-06T11:53:44.824Z,80.84
2018-02-06T11:54:44.578Z,81.13
2018-02-06T11:55:44.594Z,81.51
2018-02-06T11:56:44.859Z,80.46
2018-02-06T11:57:44.870Z,80.08
2018-02-06T11:58:44.622Z,80.08
2018-02-06T11:59:44.892Z,80.08
2018-02-06T12:00:44.910Z,80.56
2018-02-06T12:01:59.602Z,80.65
2018-02-06T12:02:44.943Z,80.27
2018-02-06T12:03:44.948Z,80.37
2018-02-06T12:04:44.964Z,80.46
2018-02-06T12:05:44.991Z,80.46
2018-02-06T12:06:44.994Z,80.08
2018-02-06T12:07:45.012Z,80.27
2018-02-06T12:08:45.024Z,80.27
2018-02-06T12:09:45.042Z,79.99
2018-02-06T12:10:45.046Z,80.37
2018-02-06T12:11:45.065Z,79.9
2018-02-06T12:12:45.071Z,79.14
2018-02-06T12:13:45.073Z,79.24
2018-02-06T12:14:45.095Z,79.61
2018-02-06T12:15:45.105Z,78.58
2018-02-06T12:16:45.129Z,77.91
2018-02-06T12:17:59.810Z,77.53
2018-02-06T12:18:44.889Z,77.39
2018-02-06T12:19:45.154Z,77.82
2018-02-06T12:20:45.182Z,77.67
2018-02-06T12:21:45.181Z,78.2
2018-02-06T12:22:45.190Z,77.2
2018-02-06T12:23:45.220Z,77.95
2018-02-06T12:24:45.234Z,77.1
2018-02-06T12:25:45.229Z,76.97
2018-02-06T12:26:45.254Z,77.44
2018-02-06T12:27:45.264Z,77.82
2018-02-06T12:28:45.279Z,76.34
2018-02-06T12:29:45.299Z,75.64
2018-02-06T12:30:45.310Z,74.64
2018-02-06T12:31:45.315Z,74.45
2018-02-06T12:32:45.328Z,73.88
2018-02-06T12:34:00.021Z,74.07
2018-02-06T12:34:45.355Z,74.17
2018-02-06T12:35:45.365Z,74.26
2018-02-06T12:36:45.135Z,73.79
2018-02-06T12:37:45.396Z,74.17
2018-02-06T12:38:45.402Z,74.17
2018-02-06T12:39:45.431Z,73.79
2018-02-06T12:40:45.176Z,73.03
2018-02-06T12:41:45.457Z,72.94
2018-02-06T12:42:45.507Z,73.22
2018-02-06T12:43:45.479Z,73.13
2018-02-06T12:44:45.532Z,73.69
2018-02-06T12:45:45.505Z,73.5
2018-02-06T12:46:45.509Z,73.69
2018-02-06T12:47:45.520Z,72.66
2018-02-06T12:48:45.531Z,72.56
2018-02-06T12:50:00.227Z,72.18
2018-02-06T12:50:45.590Z,71.9
2018-02-06T12:51:45.576Z,71.8
2018-02-06T12:52:45.598Z,71.9
2018-02-06T12:53:45.600Z,72.47
2018-02-06T12:54:45.623Z,72.94
2018-02-06T12:55:45.640Z,73.22
2018-02-06T12:56:45.645Z,73.13
2018-02-06T12:57:45.660Z,73.03
2018-02-06T12:58:45.677Z,72.37
2018-02-06T12:59:45.681Z,71.9
2018-02-06T13:00:45.724Z,71.04
2018-02-06T13:01:45.702Z,70.2
2018-02-06T13:02:45.730Z,70.57
2018-02-06T13:03:45.731Z,70.29
2018-02-06T13:05:00.429Z,70.48
2018-02-06T13:05:45.786Z,70.67
2018-02-06T13:06:45.772Z,71.8
2018-02-06T13:07:45.807Z,72.28
2018-02-06T13:08:45.552Z,71.04
2018-02-06T13:09:45.813Z,70.2
2018-02-06T13:10:45.590Z,69.53
2018-02-06T13:11:45.857Z,69.44
2018-02-06T13:12:45.874Z,69.15
2018-02-06T13:13:45.875Z,69.25
2018-02-06T13:14:45.885Z,68.59
2018-02-06T13:15:45.889Z,67.83
2018-02-06T13:16:45.914Z,67.64
2018-02-06T13:17:45.925Z,67.64
2018-02-06T13:18:45.941Z,67.74
2018-02-06T13:19:45.951Z,68.12
2018-02-06T13:20:45.708Z,67.64
2018-02-06T13:21:45.977Z,67.83
2018-02-06T13:22:46.000Z,66.98
2018-02-06T13:24:46.008Z,67.07
2018-02-06T13:25:46.028Z,67.26
2018-02-06T13:26:45.790Z,67.17
2018-02-06T13:27:46.067Z,66.79
2018-02-06T13:28:46.075Z,67.36
2018-02-06T13:30:45.841Z,66.88
2018-02-06T13:31:46.116Z,66.6
2018-02-06T13:32:45.870Z,66.31
2018-02-06T13:33:46.140Z,66.6
2018-02-06T13:34:46.150Z,65.75
2018-02-06T13:35:46.205Z,65.56
2018-02-06T13:37:00.854Z,65.84
2018-02-06T13:38:46.218Z,65.84
2018-02-06T13:39:46.217Z,65.56
2018-02-06T13:40:46.234Z,66.03
2018-02-06T13:41:46.251Z,66.03
2018-02-06T13:42:46.254Z,65.47
2018-02-06T13:43:46.019Z,65.18
2018-02-06T13:44:46.275Z,64.61
2018-02-06T13:45:46.291Z,65.09
2018-02-06T13:46:46.303Z,65.56
2018-02-06T13:47:46.419Z,65.75
2018-02-06T13:48:46.343Z,65.47
2018-02-06T13:49:46.337Z,65.66
2018-02-06T13:50:46.368Z,65.84
2018-02-06T13:51:46.388Z,65.66
2018-02-06T13:53:01.061Z,66.5
2018-02-06T13:53:46.412Z,66.69
2018-02-06T13:54:46.419Z,66.41
2018-02-06T13:55:46.438Z,66.03
2018-02-06T13:56:46.448Z,65.94
2018-02-06T13:57:46.460Z,65.84
2018-02-06T13:58:46.475Z,65.66
2018-02-06T13:59:46.583Z,64.9
2018-02-06T14:01:46.258Z,64.8
2018-02-06T14:02:46.534Z,64.61
2018-02-06T14:03:46.547Z,64.99
2018-02-06T14:04:46.558Z,65.75
2018-02-06T14:05:46.580Z,64.8
2018-02-06T14:06:46.337Z,65.18
2018-02-06T14:07:46.338Z,65.47
2018-02-06T14:09:01.284Z,65.94
2018-02-06T14:09:46.618Z,65.75
2018-02-06T14:10:46.633Z,65.75
2018-02-06T14:11:46.665Z,65.75
2018-02-06T14:12:46.653Z,66.5
2018-02-06T14:13:46.666Z,66.03
2018-02-06T14:14:46.691Z,66.41
2018-02-06T14:15:46.441Z,66.03
2018-02-06T14:16:46.717Z,67.07
2018-02-06T14:17:46.719Z,66.98
2018-02-06T14:18:46.754Z,66.22
2018-02-06T14:19:46.764Z,65.94
2018-02-06T14:20:46.763Z,65.84
2018-02-06T14:21:46.774Z,65.84
2018-02-06T14:22:46.797Z,65.56
2018-02-06T14:23:46.800Z,65.94
2018-02-06T14:25:01.494Z,66.41
2018-02-06T14:25:46.826Z,67.17
2018-02-06T14:26:46.845Z,67.74
2018-02-06T14:27:46.848Z,67.64
2018-02-06T14:28:46.876Z,66.79
2018-02-06T14:29:46.884Z,67.17
2018-02-06T14:30:46.650Z,66.79
2018-02-06T14:31:46.909Z,66.6
2018-02-06T14:32:46.930Z,66.22
2018-02-06T14:33:46.946Z,66.31
2018-02-06T14:34:46.946Z,66.6
2018-02-06T14:35:46.969Z,67.36
2018-02-06T14:36:46.979Z,67.83
2018-02-06T14:37:46.997Z,67.36
2018-02-06T14:38:47.009Z,67.93
2018-02-06T14:40:01.692Z,67.74
2018-02-06T14:40:46.777Z,68.49
2018-02-06T14:41:47.039Z,67.74
2018-02-06T14:42:47.064Z,67.45
2018-02-06T14:43:47.068Z,68.27
2018-02-06T14:44:47.088Z,68.4
2018-02-06T14:45:47.097Z,67.89
2018-02-06T14:46:47.110Z,68.12
2018-02-06T14:47:47.135Z,68.17
2018-02-06T14:48:47.130Z,68.17
2018-02-06T14:49:47.149Z,68.3
2018-02-06T14:50:47.160Z,68.46
2018-02-06T14:51:47.184Z,68.49
2018-02-06T14:52:47.197Z,68.59
2018-02-06T14:53:47.209Z,68.46
2018-02-06T14:54:46.970Z,68.55
2018-02-06T14:55:47.228Z,68.74
2018-02-06T14:56:46.983Z,68.84
2018-02-06T14:57:47.264Z,68.93
2018-02-06T14:58:47.277Z,68.74
2018-02-06T14:59:47.035Z,68.46
2018-02-06T15:00:47.301Z,68.93
2018-02-06T15:01:47.309Z,69.31
2018-02-06T15:02:47.068Z,69.4
2018-02-06T15:03:47.336Z,69.59
2018-02-06T15:04:47.346Z,70.25
2018-02-06T15:05:47.107Z,70.44
2018-02-06T15:06:47.378Z,70.06
2018-02-06T15:07:47.372Z,70.16
2018-02-06T15:08:47.494Z,69.78
2018-02-06T15:09:47.411Z,69.78
2018-02-06T15:10:47.422Z,69.31
2018-02-06T15:12:02.115Z,69.49
2018-02-06T15:12:47.455Z,69.31
2018-02-06T15:13:47.215Z,69.49
2018-02-06T15:14:47.488Z,69.31
2018-02-06T15:15:47.497Z,69.4
2018-02-06T15:16:47.523Z,69.78
2018-02-06T15:18:47.527Z,70.16
2018-02-06T15:19:47.541Z,69.97
2018-02-06T15:20:47.552Z,70.25
2018-02-06T15:21:47.564Z,70.06
2018-02-06T15:22:47.335Z,70.25
2018-02-06T15:23:47.585Z,70.25
2018-02-06T15:24:47.601Z,69.59
2018-02-06T15:25:47.365Z,69.84
2018-02-06T15:26:47.634Z,69.78
2018-02-06T15:28:02.315Z,69.78
2018-02-06T15:28:47.660Z,69.84
2018-02-06T15:29:47.665Z,69.27
2018-02-06T15:30:47.739Z,70.16